sensor_id;sensor_type;location;lat;lon;timestamp;P1;durP1;ratioP1;P2;durP2;ratioP2
47069;SDS011;32822;48.140;7.702;2024-03-02T00:00:18;5.30;;;3.60;;
47069;SDS011;32822;48.140;7.702;2024-03-02T00:02:46;5.57;;;3.33;;
47069;SDS011;32822;48.140;7.702;2024-03-02T00:05:14;5.97;;;4.47;;
47069;SDS011;32822;48.140;7.702;2024-03-02T00:07:42;8.37;;;5.60;;
47069;SDS011;32822;48.140;7.702;2024-03-02T00:10:13;7.77;;;6.00;;
47069;SDS011;32822;48.140;7.702;2024-03-02T00:12:43;4.60;;;4.10;;
47069;SDS011;32822;48.140;7.702;2024-03-02T00:15:20;4.23;;;3.67;;
47069;SDS011;32822;48.140;7.702;2024-03-02T00:18:01;5.23;;;3.80;;
47069;SDS011;32822;48.140;7.702;2024-03-02T00:20:29;4.07;;;3.43;;
47069;SDS011;32822;48.140;7.702;2024-03-02T00:22:58;4.03;;;3.13;;
47069;SDS011;32822;48.140;7.702;2024-03-02T00:25:36;4.10;;;3.70;;
47069;SDS011;32822;48.140;7.702;2024-03-02T00:28:05;4.00;;;3.70;;
47069;SDS011;32822;48.140;7.702;2024-03-02T00:30:40;4.93;;;4.17;;
47069;SDS011;32822;48.140;7.702;2024-03-02T00:33:16;5.10;;;4.53;;
47069;SDS011;32822;48.140;7.702;2024-03-02T00:35:44;6.03;;;4.77;;
47069;SDS011;32822;48.140;7.702;2024-03-02T00:38:11;6.03;;;4.93;;
47069;SDS011;32822;48.140;7.702;2024-03-02T00:40:41;7.00;;;5.10;;
47069;SDS011;32822;48.140;7.702;2024-03-02T00:43:11;6.17;;;5.43;;
47069;SDS011;32822;48.140;7.702;2024-03-02T00:46:00;4.93;;;4.37;;
47069;SDS011;32822;48.140;7.702;2024-03-02T00:48:27;6.53;;;4.90;;
47069;SDS011;32822;48.140;7.702;2024-03-02T00:50:53;6.37;;;5.40;;
47069;SDS011;32822;48.140;7.702;2024-03-02T00:53:21;7.63;;;4.63;;
47069;SDS011;32822;48.140;7.702;2024-03-02T00:55:51;5.27;;;4.70;;
47069;SDS011;32822;48.140;7.702;2024-03-02T00:58:18;4.67;;;4.20;;
47069;SDS011;32822;48.140;7.702;2024-03-02T01:00:45;4.27;;;3.87;;
47069;SDS011;32822;48.140;7.702;2024-03-02T01:03:12;5.47;;;4.40;;
47069;SDS011;32822;48.140;7.702;2024-03-02T01:05:40;3.80;;;3.30;;
47069;SDS011;32822;48.140;7.702;2024-03-02T01:08:08;4.73;;;3.83;;
47069;SDS011;32822;48.140;7.702;2024-03-02T01:10:35;4.23;;;3.83;;
47069;SDS011;32822;48.140;7.702;2024-03-02T01:13:03;4.37;;;3.37;;
47069;SDS011;32822;48.140;7.702;2024-03-02T01:15:30;6.33;;;4.10;;
47069;SDS011;32822;48.140;7.702;2024-03-02T01:17:57;4.87;;;4.37;;
47069;SDS011;32822;48.140;7.702;2024-03-02T01:20:24;4.33;;;3.93;;
47069;SDS011;32822;48.140;7.702;2024-03-02T01:22:51;9.77;;;4.63;;
47069;SDS011;32822;48.140;7.702;2024-03-02T01:25:18;5.27;;;4.20;;
47069;SDS011;32822;48.140;7.702;2024-03-02T01:27:45;5.53;;;4.43;;
47069;SDS011;32822;48.140;7.702;2024-03-02T01:30:13;4.87;;;4.40;;
47069;SDS011;32822;48.140;7.702;2024-03-02T01:32:40;4.67;;;4.17;;
47069;SDS011;32822;48.140;7.702;2024-03-02T01:35:07;4.93;;;3.90;;
47069;SDS011;32822;48.140;7.702;2024-03-02T01:37:34;3.97;;;3.37;;
47069;SDS011;32822;48.140;7.702;2024-03-02T01:40:00;5.97;;;3.77;;
47069;SDS011;32822;48.140;7.702;2024-03-02T01:42:33;4.43;;;3.63;;
47069;SDS011;32822;48.140;7.702;2024-03-02T01:45:00;5.63;;;3.67;;
47069;SDS011;32822;48.140;7.702;2024-03-02T01:47:28;3.40;;;2.93;;
47069;SDS011;32822;48.140;7.702;2024-03-02T01:49:55;3.77;;;3.40;;
47069;SDS011;32822;48.140;7.702;2024-03-02T01:52:21;3.53;;;3.23;;
47069;SDS011;32822;48.140;7.702;2024-03-02T01:54:48;5.93;;;3.20;;
47069;SDS011;32822;48.140;7.702;2024-03-02T01:57:15;2.90;;;2.60;;
47069;SDS011;32822;48.140;7.702;2024-03-02T01:59:42;3.70;;;3.17;;
47069;SDS011;32822;48.140;7.702;2024-03-02T02:02:09;4.00;;;2.80;;
47069;SDS011;32822;48.140;7.702;2024-03-02T02:04:37;4.37;;;2.87;;
47069;SDS011;32822;48.140;7.702;2024-03-02T02:07:04;3.40;;;3.10;;
47069;SDS011;32822;48.140;7.702;2024-03-02T02:09:31;2.60;;;2.40;;
47069;SDS011;32822;48.140;7.702;2024-03-02T02:11:58;2.70;;;2.50;;
47069;SDS011;32822;48.140;7.702;2024-03-02T02:14:25;4.37;;;2.67;;
47069;SDS011;32822;48.140;7.702;2024-03-02T02:16:52;3.00;;;2.70;;
47069;SDS011;32822;48.140;7.702;2024-03-02T02:19:18;2.20;;;2.00;;
47069;SDS011;32822;48.140;7.702;2024-03-02T02:21:46;3.93;;;2.60;;
47069;SDS011;32822;48.140;7.702;2024-03-02T02:24:13;2.50;;;2.30;;
47069;SDS011;32822;48.140;7.702;2024-03-02T02:26:40;2.43;;;2.20;;
47069;SDS011;32822;48.140;7.702;2024-03-02T02:29:06;2.60;;;2.07;;
47069;SDS011;32822;48.140;7.702;2024-03-02T02:31:36;2.10;;;1.90;;
47069;SDS011;32822;48.140;7.702;2024-03-02T02:34:04;2.43;;;2.10;;
47069;SDS011;32822;48.140;7.702;2024-03-02T02:36:30;3.73;;;2.17;;
47069;SDS011;32822;48.140;7.702;2024-03-02T02:38:59;2.80;;;2.60;;
47069;SDS011;32822;48.140;7.702;2024-03-02T02:41:28;2.77;;;2.47;;
47069;SDS011;32822;48.140;7.702;2024-03-02T02:43:55;3.73;;;3.00;;
47069;SDS011;32822;48.140;7.702;2024-03-02T02:46:21;2.60;;;2.20;;
47069;SDS011;32822;48.140;7.702;2024-03-02T02:48:48;4.00;;;2.50;;
47069;SDS011;32822;48.140;7.702;2024-03-02T02:51:16;2.40;;;2.20;;
47069;SDS011;32822;48.140;7.702;2024-03-02T02:53:43;3.00;;;2.70;;
47069;SDS011;32822;48.140;7.702;2024-03-02T02:56:11;2.90;;;2.53;;
47069;SDS011;32822;48.140;7.702;2024-03-02T02:58:39;2.53;;;2.33;;
47069;SDS011;32822;48.140;7.702;2024-03-02T03:01:06;3.37;;;2.40;;
47069;SDS011;32822;48.140;7.702;2024-03-02T03:03:33;2.37;;;2.17;;
47069;SDS011;32822;48.140;7.702;2024-03-02T03:06:00;2.30;;;2.10;;
47069;SDS011;32822;48.140;7.702;2024-03-02T03:08:27;2.03;;;1.87;;
47069;SDS011;32822;48.140;7.702;2024-03-02T03:10:54;3.60;;;3.30;;
47069;SDS011;32822;48.140;7.702;2024-03-02T03:13:22;5.40;;;4.07;;
47069;SDS011;32822;48.140;7.702;2024-03-02T03:15:49;3.83;;;3.47;;
47069;SDS011;32822;48.140;7.702;2024-03-02T03:18:16;4.60;;;4.03;;
47069;SDS011;32822;48.140;7.702;2024-03-02T03:20:42;6.10;;;3.50;;
47069;SDS011;32822;48.140;7.702;2024-03-02T03:23:09;3.77;;;3.47;;
47069;SDS011;32822;48.140;7.702;2024-03-02T03:25:40;3.43;;;3.13;;
47069;SDS011;32822;48.140;7.702;2024-03-02T03:28:06;3.37;;;3.00;;
47069;SDS011;32822;48.140;7.702;2024-03-02T03:30:36;3.57;;;2.67;;
47069;SDS011;32822;48.140;7.702;2024-03-02T03:33:03;3.17;;;2.73;;
47069;SDS011;32822;48.140;7.702;2024-03-02T03:35:30;4.10;;;2.90;;
47069;SDS011;32822;48.140;7.702;2024-03-02T03:37:57;2.80;;;2.50;;
47069;SDS011;32822;48.140;7.702;2024-03-02T03:40:24;3.27;;;2.00;;
47069;SDS011;32822;48.140;7.702;2024-03-02T03:42:51;4.63;;;3.00;;
47069;SDS011;32822;48.140;7.702;2024-03-02T03:45:18;3.17;;;2.57;;
47069;SDS011;32822;48.140;7.702;2024-03-02T03:47:46;9.97;;;4.37;;
47069;SDS011;32822;48.140;7.702;2024-03-02T03:50:13;6.97;;;4.87;;
47069;SDS011;32822;48.140;7.702;2024-03-02T03:52:53;4.77;;;4.33;;
47069;SDS011;32822;48.140;7.702;2024-03-02T03:55:19;5.97;;;5.03;;
47069;SDS011;32822;48.140;7.702;2024-03-02T03:57:46;7.10;;;5.77;;
47069;SDS011;32822;48.140;7.702;2024-03-02T04:00:13;8.53;;;7.03;;
47069;SDS011;32822;48.140;7.702;2024-03-02T04:02:40;7.60;;;5.87;;
47069;SDS011;32822;48.140;7.702;2024-03-02T04:05:07;8.07;;;6.47;;
47069;SDS011;32822;48.140;7.702;2024-03-02T04:07:35;8.23;;;5.97;;
47069;SDS011;32822;48.140;7.702;2024-03-02T04:10:07;8.00;;;5.97;;
47069;SDS011;32822;48.140;7.702;2024-03-02T04:12:33;8.17;;;6.27;;
47069;SDS011;32822;48.140;7.702;2024-03-02T04:15:00;8.93;;;6.80;;
47069;SDS011;32822;48.140;7.702;2024-03-02T04:17:28;7.50;;;6.10;;
47069;SDS011;32822;48.140;7.702;2024-03-02T04:19:57;11.93;;;7.97;;
47069;SDS011;32822;48.140;7.702;2024-03-02T04:22:23;8.27;;;6.97;;
47069;SDS011;32822;48.140;7.702;2024-03-02T04:24:50;11.50;;;8.60;;
47069;SDS011;32822;48.140;7.702;2024-03-02T04:27:18;8.13;;;6.83;;
47069;SDS011;32822;48.140;7.702;2024-03-02T04:29:44;9.47;;;7.40;;
47069;SDS011;32822;48.140;7.702;2024-03-02T04:32:11;12.17;;;6.77;;
47069;SDS011;32822;48.140;7.702;2024-03-02T04:34:38;9.07;;;6.30;;
47069;SDS011;32822;48.140;7.702;2024-03-02T04:37:04;8.93;;;7.10;;
47069;SDS011;32822;48.140;7.702;2024-03-02T04:39:31;10.53;;;6.87;;
47069;SDS011;32822;48.140;7.702;2024-03-02T04:41:58;9.70;;;7.77;;
47069;SDS011;32822;48.140;7.702;2024-03-02T04:44:26;11.37;;;8.87;;
47069;SDS011;32822;48.140;7.702;2024-03-02T04:46:52;9.43;;;7.47;;
47069;SDS011;32822;48.140;7.702;2024-03-02T04:49:19;12.30;;;7.80;;
47069;SDS011;32822;48.140;7.702;2024-03-02T04:51:45;12.17;;;8.13;;
47069;SDS011;32822;48.140;7.702;2024-03-02T04:54:12;10.27;;;7.57;;
47069;SDS011;32822;48.140;7.702;2024-03-02T04:56:39;10.43;;;7.37;;
47069;SDS011;32822;48.140;7.702;2024-03-02T04:59:09;10.43;;;7.53;;
47069;SDS011;32822;48.140;7.702;2024-03-02T05:01:37;11.30;;;7.63;;
47069;SDS011;32822;48.140;7.702;2024-03-02T05:04:04;12.60;;;8.27;;
47069;SDS011;32822;48.140;7.702;2024-03-02T05:06:30;11.07;;;7.30;;
47069;SDS011;32822;48.140;7.702;2024-03-02T05:08:57;8.30;;;6.50;;
47069;SDS011;32822;48.140;7.702;2024-03-02T05:11:24;12.40;;;6.90;;
47069;SDS011;32822;48.140;7.702;2024-03-02T05:14:08;8.57;;;6.77;;
47069;SDS011;32822;48.140;7.702;2024-03-02T05:16:35;12.40;;;8.40;;
47069;SDS011;32822;48.140;7.702;2024-03-02T05:19:04;9.53;;;6.73;;
47069;SDS011;32822;48.140;7.702;2024-03-02T05:21:32;9.70;;;7.20;;
47069;SDS011;32822;48.140;7.702;2024-03-02T05:23:59;8.80;;;6.60;;
47069;SDS011;32822;48.140;7.702;2024-03-02T05:26:25;8.57;;;7.67;;
47069;SDS011;32822;48.140;7.702;2024-03-02T05:28:52;9.37;;;7.73;;
47069;SDS011;32822;48.140;7.702;2024-03-02T05:31:19;11.53;;;8.20;;
47069;SDS011;32822;48.140;7.702;2024-03-02T05:33:46;9.20;;;7.83;;
47069;SDS011;32822;48.140;7.702;2024-03-02T05:36:14;9.00;;;7.43;;
47069;SDS011;32822;48.140;7.702;2024-03-02T05:38:40;8.80;;;7.40;;
47069;SDS011;32822;48.140;7.702;2024-03-02T05:41:07;9.97;;;7.80;;
47069;SDS011;32822;48.140;7.702;2024-03-02T05:43:34;14.80;;;8.37;;
47069;SDS011;32822;48.140;7.702;2024-03-02T05:46:01;9.67;;;8.03;;
47069;SDS011;32822;48.140;7.702;2024-03-02T05:48:28;8.50;;;7.53;;
47069;SDS011;32822;48.140;7.702;2024-03-02T05:50:55;9.90;;;7.00;;
47069;SDS011;32822;48.140;7.702;2024-03-02T05:53:23;8.07;;;6.90;;
47069;SDS011;32822;48.140;7.702;2024-03-02T05:55:49;11.57;;;7.80;;
47069;SDS011;32822;48.140;7.702;2024-03-02T05:58:18;9.77;;;7.07;;
47069;SDS011;32822;48.140;7.702;2024-03-02T06:00:56;9.53;;;6.73;;
47069;SDS011;32822;48.140;7.702;2024-03-02T06:03:23;8.37;;;5.90;;
47069;SDS011;32822;48.140;7.702;2024-03-02T06:05:49;8.80;;;6.17;;
47069;SDS011;32822;48.140;7.702;2024-03-02T06:08:16;7.63;;;5.43;;
47069;SDS011;32822;48.140;7.702;2024-03-02T06:10:44;8.13;;;5.87;;
47069;SDS011;32822;48.140;7.702;2024-03-02T06:13:12;7.63;;;5.23;;
47069;SDS011;32822;48.140;7.702;2024-03-02T06:15:38;6.30;;;5.70;;
47069;SDS011;32822;48.140;7.702;2024-03-02T06:18:05;8.63;;;6.00;;
47069;SDS011;32822;48.140;7.702;2024-03-02T06:20:32;11.03;;;9.50;;
47069;SDS011;32822;48.140;7.702;2024-03-02T06:23:00;9.63;;;8.47;;
47069;SDS011;32822;48.140;7.702;2024-03-02T06:25:26;12.20;;;8.97;;
47069;SDS011;32822;48.140;7.702;2024-03-02T06:27:54;12.63;;;9.03;;
47069;SDS011;32822;48.140;7.702;2024-03-02T06:30:21;11.00;;;8.47;;
47069;SDS011;32822;48.140;7.702;2024-03-02T06:32:48;11.40;;;7.83;;
47069;SDS011;32822;48.140;7.702;2024-03-02T06:35:14;11.07;;;8.33;;
47069;SDS011;32822;48.140;7.702;2024-03-02T06:37:41;12.20;;;7.57;;
47069;SDS011;32822;48.140;7.702;2024-03-02T06:40:08;11.00;;;8.13;;
47069;SDS011;32822;48.140;7.702;2024-03-02T06:42:35;11.30;;;7.67;;
47069;SDS011;32822;48.140;7.702;2024-03-02T06:45:04;12.43;;;8.10;;
47069;SDS011;32822;48.140;7.702;2024-03-02T06:47:31;10.33;;;7.20;;
47069;SDS011;32822;48.140;7.702;2024-03-02T06:49:58;10.60;;;7.60;;
47069;SDS011;32822;48.140;7.702;2024-03-02T06:52:24;10.57;;;7.60;;
47069;SDS011;32822;48.140;7.702;2024-03-02T06:54:51;10.80;;;7.47;;
47069;SDS011;32822;48.140;7.702;2024-03-02T06:57:18;9.23;;;7.57;;
47069;SDS011;32822;48.140;7.702;2024-03-02T06:59:45;8.13;;;7.33;;
47069;SDS011;32822;48.140;7.702;2024-03-02T07:02:15;8.67;;;7.00;;
47069;SDS011;32822;48.140;7.702;2024-03-02T07:04:41;13.23;;;8.57;;
47069;SDS011;32822;48.140;7.702;2024-03-02T07:07:08;9.57;;;7.43;;
47069;SDS011;32822;48.140;7.702;2024-03-02T07:09:35;11.90;;;8.03;;
47069;SDS011;32822;48.140;7.702;2024-03-02T07:12:01;11.50;;;8.70;;
47069;SDS011;32822;48.140;7.702;2024-03-02T07:14:28;12.90;;;9.30;;
47069;SDS011;32822;48.140;7.702;2024-03-02T07:17:09;12.70;;;9.47;;
47069;SDS011;32822;48.140;7.702;2024-03-02T07:19:37;9.87;;;8.77;;
47069;SDS011;32822;48.140;7.702;2024-03-02T07:22:05;11.47;;;8.80;;
47069;SDS011;32822;48.140;7.702;2024-03-02T07:24:33;8.93;;;7.97;;
47069;SDS011;32822;48.140;7.702;2024-03-02T07:27:05;11.00;;;7.87;;
47069;SDS011;32822;48.140;7.702;2024-03-02T07:29:32;10.67;;;8.50;;
47069;SDS011;32822;48.140;7.702;2024-03-02T07:31:59;13.53;;;10.90;;
47069;SDS011;32822;48.140;7.702;2024-03-02T07:34:26;12.30;;;10.23;;
47069;SDS011;32822;48.140;7.702;2024-03-02T07:36:54;13.27;;;10.00;;
47069;SDS011;32822;48.140;7.702;2024-03-02T07:39:21;12.50;;;10.17;;
47069;SDS011;32822;48.140;7.702;2024-03-02T07:41:48;13.13;;;9.20;;
47069;SDS011;32822;48.140;7.702;2024-03-02T07:44:15;11.30;;;8.87;;
47069;SDS011;32822;48.140;7.702;2024-03-02T07:46:44;13.10;;;9.60;;
47069;SDS011;32822;48.140;7.702;2024-03-02T07:49:11;11.13;;;9.17;;
47069;SDS011;32822;48.140;7.702;2024-03-02T07:51:39;16.53;;;10.30;;
47069;SDS011;32822;48.140;7.702;2024-03-02T07:54:07;13.10;;;10.53;;
47069;SDS011;32822;48.140;7.702;2024-03-02T07:56:33;16.83;;;11.93;;
47069;SDS011;32822;48.140;7.702;2024-03-02T07:59:00;13.70;;;10.40;;
47069;SDS011;32822;48.140;7.702;2024-03-02T08:01:27;13.93;;;9.80;;
47069;SDS011;32822;48.140;7.702;2024-03-02T08:03:55;12.47;;;10.57;;
47069;SDS011;32822;48.140;7.702;2024-03-02T08:06:23;14.20;;;10.93;;
47069;SDS011;32822;48.140;7.702;2024-03-02T08:08:52;15.07;;;10.87;;
47069;SDS011;32822;48.140;7.702;2024-03-02T08:11:20;13.87;;;9.40;;
47069;SDS011;32822;48.140;7.702;2024-03-02T08:13:47;13.97;;;10.50;;
47069;SDS011;32822;48.140;7.702;2024-03-02T08:16:14;13.53;;;10.80;;
47069;SDS011;32822;48.140;7.702;2024-03-02T08:18:43;13.37;;;9.70;;
47069;SDS011;32822;48.140;7.702;2024-03-02T08:21:10;11.97;;;9.53;;
47069;SDS011;32822;48.140;7.702;2024-03-02T08:23:37;18.93;;;12.83;;
47069;SDS011;32822;48.140;7.702;2024-03-02T08:26:05;15.53;;;12.50;;
47069;SDS011;32822;48.140;7.702;2024-03-02T08:28:34;17.73;;;12.40;;
47069;SDS011;32822;48.140;7.702;2024-03-02T08:31:02;15.40;;;10.83;;
47069;SDS011;32822;48.140;7.702;2024-03-02T08:33:28;16.53;;;12.37;;
47069;SDS011;32822;48.140;7.702;2024-03-02T08:35:55;17.50;;;12.97;;
47069;SDS011;32822;48.140;7.702;2024-03-02T08:38:22;16.80;;;12.93;;
47069;SDS011;32822;48.140;7.702;2024-03-02T08:40:49;25.47;;;16.80;;
47069;SDS011;32822;48.140;7.702;2024-03-02T08:43:16;19.43;;;12.57;;
47069;SDS011;32822;48.140;7.702;2024-03-02T08:45:44;17.07;;;12.60;;
47069;SDS011;32822;48.140;7.702;2024-03-02T08:48:12;15.23;;;12.40;;
47069;SDS011;32822;48.140;7.702;2024-03-02T08:50:39;15.90;;;12.60;;
47069;SDS011;32822;48.140;7.702;2024-03-02T08:53:05;17.73;;;12.43;;
47069;SDS011;32822;48.140;7.702;2024-03-02T08:55:32;16.00;;;12.60;;
47069;SDS011;32822;48.140;7.702;2024-03-02T08:57:59;17.33;;;11.27;;
47069;SDS011;32822;48.140;7.702;2024-03-02T09:00:26;14.37;;;11.07;;
47069;SDS011;32822;48.140;7.702;2024-03-02T09:02:54;13.93;;;11.03;;
47069;SDS011;32822;48.140;7.702;2024-03-02T09:05:20;15.87;;;12.53;;
47069;SDS011;32822;48.140;7.702;2024-03-02T09:07:47;14.63;;;12.40;;
47069;SDS011;32822;48.140;7.702;2024-03-02T09:10:14;17.63;;;14.57;;
47069;SDS011;32822;48.140;7.702;2024-03-02T09:12:41;19.90;;;14.77;;
47069;SDS011;32822;48.140;7.702;2024-03-02T09:15:09;18.13;;;12.63;;
47069;SDS011;32822;48.140;7.702;2024-03-02T09:17:36;15.40;;;12.20;;
47069;SDS011;32822;48.140;7.702;2024-03-02T09:20:04;14.80;;;11.17;;
47069;SDS011;32822;48.140;7.702;2024-03-02T09:22:31;13.50;;;10.20;;
47069;SDS011;32822;48.140;7.702;2024-03-02T09:24:58;11.80;;;9.00;;
47069;SDS011;32822;48.140;7.702;2024-03-02T09:27:25;17.67;;;9.90;;
47069;SDS011;32822;48.140;7.702;2024-03-02T09:29:52;15.00;;;11.00;;
47069;SDS011;32822;48.140;7.702;2024-03-02T09:32:18;16.47;;;11.77;;
47069;SDS011;32822;48.140;7.702;2024-03-02T09:34:45;12.03;;;9.07;;
47069;SDS011;32822;48.140;7.702;2024-03-02T09:37:14;12.57;;;10.30;;
47069;SDS011;32822;48.140;7.702;2024-03-02T09:39:43;13.37;;;8.43;;
47069;SDS011;32822;48.140;7.702;2024-03-02T09:42:10;11.50;;;9.77;;
47069;SDS011;32822;48.140;7.702;2024-03-02T09:44:37;12.20;;;9.33;;
47069;SDS011;32822;48.140;7.702;2024-03-02T09:47:04;10.43;;;8.50;;
47069;SDS011;32822;48.140;7.702;2024-03-02T09:49:32;11.60;;;9.47;;
47069;SDS011;32822;48.140;7.702;2024-03-02T09:51:59;10.63;;;8.70;;
47069;SDS011;32822;48.140;7.702;2024-03-02T09:54:27;13.70;;;9.40;;
47069;SDS011;32822;48.140;7.702;2024-03-02T09:56:54;12.87;;;8.70;;
47069;SDS011;32822;48.140;7.702;2024-03-02T09:59:21;12.90;;;9.83;;
47069;SDS011;32822;48.140;7.702;2024-03-02T10:01:55;11.63;;;10.03;;
47069;SDS011;32822;48.140;7.702;2024-03-02T10:04:23;13.77;;;9.53;;
47069;SDS011;32822;48.140;7.702;2024-03-02T10:06:51;15.43;;;10.03;;
47069;SDS011;32822;48.140;7.702;2024-03-02T10:09:27;13.47;;;9.17;;
47069;SDS011;32822;48.140;7.702;2024-03-02T10:12:01;12.03;;;8.30;;
47069;SDS011;32822;48.140;7.702;2024-03-02T10:14:30;10.33;;;8.73;;
47069;SDS011;32822;48.140;7.702;2024-03-02T10:17:01;11.10;;;8.70;;
47069;SDS011;32822;48.140;7.702;2024-03-02T10:19:28;13.97;;;9.10;;
47069;SDS011;32822;48.140;7.702;2024-03-02T10:21:57;11.37;;;8.63;;
47069;SDS011;32822;48.140;7.702;2024-03-02T10:24:24;11.43;;;8.90;;
47069;SDS011;32822;48.140;7.702;2024-03-02T10:26:53;11.20;;;8.40;;
47069;SDS011;32822;48.140;7.702;2024-03-02T10:29:22;9.30;;;8.20;;
47069;SDS011;32822;48.140;7.702;2024-03-02T10:31:48;9.20;;;8.17;;
47069;SDS011;32822;48.140;7.702;2024-03-02T10:34:15;12.73;;;7.77;;
47069;SDS011;32822;48.140;7.702;2024-03-02T10:36:42;11.67;;;7.53;;
47069;SDS011;32822;48.140;7.702;2024-03-02T10:39:10;10.37;;;7.27;;
47069;SDS011;32822;48.140;7.702;2024-03-02T10:41:40;9.73;;;7.70;;
47069;SDS011;32822;48.140;7.702;2024-03-02T10:44:08;8.87;;;7.93;;
47069;SDS011;32822;48.140;7.702;2024-03-02T10:46:36;6.63;;;4.90;;
47069;SDS011;32822;48.140;7.702;2024-03-02T10:49:04;5.67;;;4.20;;
47069;SDS011;32822;48.140;7.702;2024-03-02T10:51:32;5.23;;;4.73;;
47069;SDS011;32822;48.140;7.702;2024-03-02T10:54:01;4.97;;;4.17;;
47069;SDS011;32822;48.140;7.702;2024-03-02T10:56:29;3.50;;;3.20;;
47069;SDS011;32822;48.140;7.702;2024-03-02T10:59:01;2.60;;;2.20;;
47069;SDS011;32822;48.140;7.702;2024-03-02T11:01:31;5.80;;;2.53;;
47069;SDS011;32822;48.140;7.702;2024-03-02T11:03:58;2.80;;;1.80;;
47069;SDS011;32822;48.140;7.702;2024-03-02T11:06:28;2.37;;;1.80;;
47069;SDS011;32822;48.140;7.702;2024-03-02T11:08:58;2.17;;;1.97;;
47069;SDS011;32822;48.140;7.702;2024-03-02T11:11:33;2.93;;;1.67;;
47069;SDS011;32822;48.140;7.702;2024-03-02T11:14:04;1.97;;;1.80;;
47069;SDS011;32822;48.140;7.702;2024-03-02T11:16:35;1.40;;;1.30;;
47069;SDS011;32822;48.140;7.702;2024-03-02T11:19:04;1.50;;;1.40;;
47069;SDS011;32822;48.140;7.702;2024-03-02T11:21:32;2.07;;;1.83;;
47069;SDS011;32822;48.140;7.702;2024-03-02T11:23:59;3.00;;;2.10;;
47069;SDS011;32822;48.140;7.702;2024-03-02T11:26:27;1.80;;;1.70;;
47069;SDS011;32822;48.140;7.702;2024-03-02T11:28:54;2.50;;;2.30;;
47069;SDS011;32822;48.140;7.702;2024-03-02T11:31:24;1.40;;;1.30;;
47069;SDS011;32822;48.140;7.702;2024-03-02T11:34:28;2.63;;;1.70;;
47069;SDS011;32822;48.140;7.702;2024-03-02T11:36:55;3.00;;;2.40;;
47069;SDS011;32822;48.140;7.702;2024-03-02T11:39:24;3.60;;;3.17;;
47069;SDS011;32822;48.140;7.702;2024-03-02T11:41:51;3.50;;;3.17;;
47069;SDS011;32822;48.140;7.702;2024-03-02T11:44:17;2.47;;;2.27;;
47069;SDS011;32822;48.140;7.702;2024-03-02T11:46:45;3.93;;;2.10;;
47069;SDS011;32822;48.140;7.702;2024-03-02T11:49:15;6.60;;;3.70;;
47069;SDS011;32822;48.140;7.702;2024-03-02T11:51:50;2.73;;;2.40;;
47069;SDS011;32822;48.140;7.702;2024-03-02T11:54:26;2.33;;;2.10;;
47069;SDS011;32822;48.140;7.702;2024-03-02T11:56:55;2.53;;;1.70;;
47069;SDS011;32822;48.140;7.702;2024-03-02T11:59:24;2.50;;;1.80;;
47069;SDS011;32822;48.140;7.702;2024-03-02T12:01:52;2.80;;;2.50;;
47069;SDS011;32822;48.140;7.702;2024-03-02T12:04:22;2.83;;;2.53;;
47069;SDS011;32822;48.140;7.702;2024-03-02T12:06:53;2.57;;;2.37;;
47069;SDS011;32822;48.140;7.702;2024-03-02T12:09:20;2.10;;;1.90;;
47069;SDS011;32822;48.140;7.702;2024-03-02T12:11:47;2.20;;;2.00;;
47069;SDS011;32822;48.140;7.702;2024-03-02T12:14:14;2.97;;;2.07;;
47069;SDS011;32822;48.140;7.702;2024-03-02T12:16:43;2.90;;;2.13;;
47069;SDS011;32822;48.140;7.702;2024-03-02T12:19:10;3.43;;;2.60;;
47069;SDS011;32822;48.140;7.702;2024-03-02T12:21:38;4.17;;;3.03;;
47069;SDS011;32822;48.140;7.702;2024-03-02T12:24:05;5.17;;;4.60;;
47069;SDS011;32822;48.140;7.702;2024-03-02T12:26:31;2.07;;;1.60;;
47069;SDS011;32822;48.140;7.702;2024-03-02T12:28:58;4.83;;;3.40;;
47069;SDS011;32822;48.140;7.702;2024-03-02T12:31:25;5.23;;;4.20;;
47069;SDS011;32822;48.140;7.702;2024-03-02T12:33:51;6.23;;;4.50;;
47069;SDS011;32822;48.140;7.702;2024-03-02T12:36:19;3.40;;;2.40;;
47069;SDS011;32822;48.140;7.702;2024-03-02T12:38:47;1.83;;;1.60;;
47069;SDS011;32822;48.140;7.702;2024-03-02T12:41:14;1.60;;;1.50;;
47069;SDS011;32822;48.140;7.702;2024-03-02T12:43:41;1.60;;;1.50;;
47069;SDS011;32822;48.140;7.702;2024-03-02T12:46:08;1.23;;;1.13;;
47069;SDS011;32822;48.140;7.702;2024-03-02T12:48:34;1.50;;;1.40;;
47069;SDS011;32822;48.140;7.702;2024-03-02T12:51:02;2.23;;;2.03;;
47069;SDS011;32822;48.140;7.702;2024-03-02T12:53:29;2.40;;;1.83;;
47069;SDS011;32822;48.140;7.702;2024-03-02T12:55:57;1.67;;;1.57;;
47069;SDS011;32822;48.140;7.702;2024-03-02T12:58:24;1.30;;;1.20;;
47069;SDS011;32822;48.140;7.702;2024-03-02T13:01:04;1.53;;;0.90;;
47069;SDS011;32822;48.140;7.702;2024-03-02T13:03:34;2.63;;;1.10;;
47069;SDS011;32822;48.140;7.702;2024-03-02T13:06:01;1.63;;;1.30;;
47069;SDS011;32822;48.140;7.702;2024-03-02T13:08:28;1.43;;;1.30;;
47069;SDS011;32822;48.140;7.702;2024-03-02T13:10:56;2.07;;;1.30;;
47069;SDS011;32822;48.140;7.702;2024-03-02T13:13:23;1.53;;;1.40;;
47069;SDS011;32822;48.140;7.702;2024-03-02T13:15:50;1.63;;;1.53;;
47069;SDS011;32822;48.140;7.702;2024-03-02T13:18:21;2.70;;;1.17;;
47069;SDS011;32822;48.140;7.702;2024-03-02T13:20:48;1.43;;;1.33;;
47069;SDS011;32822;48.140;7.702;2024-03-02T13:23:15;2.30;;;1.30;;
47069;SDS011;32822;48.140;7.702;2024-03-02T13:25:41;1.10;;;1.00;;
47069;SDS011;32822;48.140;7.702;2024-03-02T13:28:09;3.10;;;2.70;;
47069;SDS011;32822;48.140;7.702;2024-03-02T13:30:36;5.73;;;4.50;;
47069;SDS011;32822;48.140;7.702;2024-03-02T13:33:03;5.47;;;4.53;;
47069;SDS011;32822;48.140;7.702;2024-03-02T13:35:30;1.53;;;1.43;;
47069;SDS011;32822;48.140;7.702;2024-03-02T13:37:57;1.60;;;1.50;;
47069;SDS011;32822;48.140;7.702;2024-03-02T13:40:23;1.40;;;1.30;;
47069;SDS011;32822;48.140;7.702;2024-03-02T13:42:50;1.10;;;1.10;;
47069;SDS011;32822;48.140;7.702;2024-03-02T13:45:20;1.00;;;1.00;;
47069;SDS011;32822;48.140;7.702;2024-03-02T13:47:46;1.27;;;1.23;;
47069;SDS011;32822;48.140;7.702;2024-03-02T13:50:12;0.93;;;0.93;;
47069;SDS011;32822;48.140;7.702;2024-03-02T13:52:39;1.30;;;1.20;;
47069;SDS011;32822;48.140;7.702;2024-03-02T13:55:06;1.67;;;1.30;;
47069;SDS011;32822;48.140;7.702;2024-03-02T13:57:33;1.03;;;1.00;;
47069;SDS011;32822;48.140;7.702;2024-03-02T14:00:00;1.67;;;1.43;;
47069;SDS011;32822;48.140;7.702;2024-03-02T14:02:29;1.97;;;1.70;;
47069;SDS011;32822;48.140;7.702;2024-03-02T14:04:56;2.20;;;2.00;;
47069;SDS011;32822;48.140;7.702;2024-03-02T14:07:22;2.47;;;2.20;;
47069;SDS011;32822;48.140;7.702;2024-03-02T14:09:49;2.37;;;2.17;;
47069;SDS011;32822;48.140;7.702;2024-03-02T14:12:16;2.23;;;1.90;;
47069;SDS011;32822;48.140;7.702;2024-03-02T14:14:43;1.53;;;1.43;;
47069;SDS011;32822;48.140;7.702;2024-03-02T14:17:09;1.30;;;1.20;;
47069;SDS011;32822;48.140;7.702;2024-03-02T14:19:41;1.27;;;1.27;;
47069;SDS011;32822;48.140;7.702;2024-03-02T14:22:07;2.23;;;1.80;;
47069;SDS011;32822;48.140;7.702;2024-03-02T14:24:34;2.17;;;1.97;;
47069;SDS011;32822;48.140;7.702;2024-03-02T14:27:01;1.80;;;1.70;;
47069;SDS011;32822;48.140;7.702;2024-03-02T14:29:29;2.53;;;2.23;;
47069;SDS011;32822;48.140;7.702;2024-03-02T14:31:56;2.00;;;1.80;;
47069;SDS011;32822;48.140;7.702;2024-03-02T14:34:23;5.43;;;1.80;;
47069;SDS011;32822;48.140;7.702;2024-03-02T14:36:51;2.87;;;2.20;;
47069;SDS011;32822;48.140;7.702;2024-03-02T14:39:17;2.10;;;1.90;;
47069;SDS011;32822;48.140;7.702;2024-03-02T14:41:44;6.80;;;2.40;;
47069;SDS011;32822;48.140;7.702;2024-03-02T14:44:11;1.73;;;1.33;;